Time;durP1;ratioP1;P1;durP2;ratioP2;P2;SDS_P1;SDS_P2;PMS_P1;PMS_P2;Temp;Humidity;BMP_temperature;BMP_pressure;BME280_temperature;BME280_humidity;BME280_pressure;Samples;Min_cycle;Max_cycle;Signal;HPM_P1;HPM_P2
2022/02/07 00:02:01;;;;;;;;;;;;;;;13.45;60.96;100251.88;4962284;28;19914;-82
2022/02/07 00:04:47;;;;;;;;;;;;;;;13.42;60.09;100249.00;4964873;28;19914;-81
2022/02/07 00:07:31;;;;;;;;;;;;;;;13.21;59.56;100244.50;4964222;28;19914;-81
2022/02/07 00:10:16;;;;;;;;;;;;;;;13.14;60.07;100236.13;4968982;28;19914;-81
2022/02/07 00:13:00;;;;;;;;;;;;;;;13.17;59.67;100223.69;4963721;28;20167;-82
2022/02/07 00:15:45;;;;;;;;;;;;;;;13.22;59.96;100216.06;4973404;28;19922;-82
2022/02/07 00:18:29;;;;;;;;;;;;;;;13.25;58.37;100215.41;4974303;28;20291;-81
2022/02/07 00:21:14;;;;;;;;;;;;;;;13.21;59.50;100206.28;4969052;28;19915;-82
2022/02/07 00:23:59;;;;;;;;;;;;;;;13.30;59.72;100195.25;4964185;28;19937;-82
2022/02/07 00:26:43;;;;;;;;;;;;;;;13.22;59.54;100196.97;4969436;28;19914;-82
2022/02/07 00:29:27;;;;;;;;;;;;;;;13.20;59.48;100206.66;4985672;28;19914;-82
2022/02/07 00:32:12;;;;;;;;;;;;;;;12.91;58.57;100204.94;4945389;29;19914;-81
2022/02/07 00:34:56;;;;;;;;;;;;;;;13.19;57.75;100199.59;4955785;28;19919;-82
2022/02/07 00:37:43;;;;;;;;;;;;;;;13.38;59.66;100199.75;4961648;28;19913;-82
2022/02/07 00:40:44;;;;;;;;;;;;;;;13.28;59.54;100211.16;4962456;28;19914;-83
2022/02/07 00:43:37;;;;;;;;;;;;;;;13.30;59.66;100189.00;4961813;28;19922;-81
2022/02/07 00:46:33;;;;;;;;;;;;;;;13.33;61.10;100189.06;4961610;28;20303;-82
2022/02/07 00:49:18;;;;;;;;;;;;;;;13.42;61.35;100180.72;4962996;28;19914;-80
2022/02/07 00:52:03;;;;;;;;;;;;;;;13.40;60.39;100158.47;4961044;28;20299;-80
2022/02/07 00:54:50;;;;;;;;;;;;;;;13.18;59.24;100176.94;4962682;28;19922;-81
2022/02/07 00:57:35;;;;;;;;;;;;;;;13.40;60.98;100161.97;4961191;28;19915;-80
2022/02/07 01:00:19;;;;;;;;;;;;;;;13.39;61.41;100167.78;4956892;28;19918;-80
2022/02/07 01:03:04;;;;;;;;;;;;;;;13.39;61.02;100163.13;4961886;28;20311;-81
2022/02/07 01:05:49;;;;;;;;;;;;;;;13.37;61.00;100143.53;4969058;28;19918;-81
2022/02/07 01:08:47;;;;;;;;;;;;;;;13.20;59.79;100132.94;4959718;28;20307;-81
2022/02/07 01:15:21;;;;;;;;;;;;;;;13.26;60.81;100118.66;4961266;28;19922;-81
2022/02/07 01:57:26;;;;;;;;;;;;;;;12.93;61.17;99989.03;4963057;28;19921;-80
2022/02/07 02:00:11;;;;;;;;;;;;;;;12.89;59.33;99988.13;4975795;28;19914;-81
2022/02/07 02:03:02;;;;;;;;;;;;;;;12.89;60.24;99971.75;4977543;28;19918;-81
2022/02/07 02:06:10;;;;;;;;;;;;;;;12.94;59.64;99952.41;4964692;28;19914;-79
2022/02/07 02:09:18;;;;;;;;;;;;;;;13.07;59.44;99934.81;4939445;29;19914;-78
2022/02/07 02:12:04;;;;;;;;;;;;;;;12.94;59.69;99939.56;4939746;29;19915;-79
2022/02/07 02:22:15;;;;;;;;;;;;;;;13.15;61.10;99892.94;4934614;29;20375;-79
2022/02/07 02:34:33;;;;;;;;;;;;;;;12.86;61.18;99843.06;4956876;28;20388;-79
2022/02/07 02:37:14;;;;;;;;;;;;;;;12.88;60.25;99844.66;4957233;28;19918;-79
2022/02/07 02:46:07;;;;;;;;;;;;;;;13.15;61.45;99827.44;4938518;29;19915;-79
2022/02/07 02:48:59;;;;;;;;;;;;;;;13.16;61.43;99813.41;4956461;29;19914;-79
2022/02/07 02:51:45;;;;;;;;;;;;;;;13.09;60.37;99813.22;4959934;28;20379;-79
2022/02/07 02:54:29;;;;;;;;;;;;;;;13.05;59.93;99809.63;4959114;28;19919;-79
2022/02/07 02:57:14;;;;;;;;;;;;;;;13.05;60.47;99806.91;4963157;28;19919;-79
2022/02/07 02:59:58;;;;;;;;;;;;;;;13.06;61.19;99807.66;4961176;28;19918;-80
2022/02/07 03:02:43;;;;;;;;;;;;;;;13.02;59.68;99798.59;4958373;28;19915;-79
2022/02/07 03:05:27;;;;;;;;;;;;;;;13.01;59.38;99794.28;4956175;28;19914;-79
2022/02/07 03:08:13;;;;;;;;;;;;;;;12.97;59.03;99780.56;4960055;29;19915;-79
2022/02/07 03:11:05;;;;;;;;;;;;;;;12.92;58.48;99758.22;4957813;28;19914;-79
2022/02/07 03:16:41;;;;;;;;;;;;;;;12.98;60.91;99754.88;4957242;28;19918;-79
2022/02/07 03:19:31;;;;;;;;;;;;;;;13.05;61.74;99762.44;4957360;28;19915;-79
2022/02/07 03:22:18;;;;;;;;;;;;;;;13.01;62.90;99750.63;4955030;28;20317;-79
2022/02/07 03:25:02;;;;;;;;;;;;;;;13.02;62.77;99735.84;4960181;28;19914;-79
2022/02/07 03:27:56;;;;;;;;;;;;;;;13.01;63.14;99745.16;4951733;29;19914;-79
2022/02/07 03:30:51;;;;;;;;;;;;;;;12.99;63.49;99736.56;4964522;28;19914;-79
2022/02/07 03:33:37;;;;;;;;;;;;;;;12.81;61.44;99742.38;4962589;28;19915;-79
2022/02/07 03:36:28;;;;;;;;;;;;;;;12.62;61.48;99733.34;4960883;28;19919;-79
2022/02/07 03:39:13;;;;;;;;;;;;;;;12.72;62.38;99724.63;4964069;28;19914;-79
2022/02/07 03:41:58;;;;;;;;;;;;;;;12.55;61.34;99712.13;4957259;28;20379;-79
2022/02/07 03:44:43;;;;;;;;;;;;;;;12.51;62.51;99702.28;4954949;28;19915;-80
2022/02/07 03:47:30;;;;;;;;;;;;;;;12.53;62.09;99721.81;4945632;29;19914;-79
2022/02/07 03:50:16;;;;;;;;;;;;;;;12.42;61.10;99724.28;4955883;28;19914;-79
2022/02/07 03:53:06;;;;;;;;;;;;;;;12.34;61.70;99719.78;4960848;28;19922;-80
2022/02/07 03:56:00;;;;;;;;;;;;;;;12.43;62.33;99718.47;4962983;28;19922;-79
2022/02/07 03:58:47;;;;;;;;;;;;;;;12.33;60.92;99696.41;4962503;28;19914;-79
2022/02/07 04:01:36;;;;;;;;;;;;;;;12.35;60.43;99702.28;4941148;29;20395;-79
2022/02/07 04:04:21;;;;;;;;;;;;;;;12.59;62.86;99699.38;4944489;29;19918;-79
2022/02/07 04:07:08;;;;;;;;;;;;;;;12.27;60.15;99676.00;4940580;29;19915;-80
2022/02/07 04:09:56;;;;;;;;;;;;;;;12.34;61.26;99657.84;4944821;28;19914;-79
2022/02/07 04:12:47;;;;;;;;;;;;;;;12.21;60.86;99647.41;4963370;28;19914;-78
2022/02/07 04:15:32;;;;;;;;;;;;;;;12.28;62.26;99633.97;4960064;29;19918;-79
2022/02/07 04:18:17;;;;;;;;;;;;;;;12.36;62.98;99620.16;4959329;28;19914;-78
2022/02/07 04:21:03;;;;;;;;;;;;;;;12.31;63.09;99600.53;4963125;28;19914;-79
2022/02/07 04:23:49;;;;;;;;;;;;;;;12.19;61.38;99598.69;4965119;28;19914;-79
2022/02/07 04:26:51;;;;;;;;;;;;;;;11.92;60.75;99583.25;4959844;28;19918;-79
2022/02/07 04:29:37;;;;;;;;;;;;;;;11.80;62.51;99569.72;4960399;28;19914;-81
2022/02/07 04:32:22;;;;;;;;;;;;;;;11.81;62.55;99574.03;4962056;28;19915;-81
2022/02/07 04:35:07;;;;;;;;;;;;;;;11.94;62.91;99584.47;4944709;29;20492;-80
2022/02/07 04:37:52;;;;;;;;;;;;;;;12.30;63.50;99574.41;4943212;29;19914;-80
2022/02/07 04:40:37;;;;;;;;;;;;;;;12.33;62.96;99573.72;4941665;29;19914;-79
2022/02/07 04:43:21;;;;;;;;;;;;;;;12.43;63.07;99573.97;4943171;29;19918;-79
2022/02/07 04:46:26;;;;;;;;;;;;;;;12.54;62.78;99585.13;4961712;28;19914;-79
2022/02/07 04:52:19;;;;;;;;;;;;;;;12.51;62.27;99580.38;4963606;28;19914;-80
2022/02/07 04:55:28;;;;;;;;;;;;;;;12.49;62.36;99599.03;4961417;28;19918;-80
2022/02/07 05:01:25;;;;;;;;;;;;;;;12.60;62.10;99599.25;4962535;28;19914;-80
2022/02/07 05:04:22;;;;;;;;;;;;;;;12.60;63.40;99594.59;4958176;28;19919;-80
2022/02/07 05:16:27;;;;;;;;;;;;;;;12.57;62.84;99652.56;4959412;28;19922;-79
2022/02/07 05:19:32;;;;;;;;;;;;;;;12.53;62.39;99654.44;4963707;28;20296;-79
2022/02/07 05:22:37;;;;;;;;;;;;;;;12.56;62.55;99658.38;4961091;28;19914;-79
2022/02/07 05:25:40;;;;;;;;;;;;;;;12.43;61.88;99679.50;4962552;28;19918;-79
2022/02/07 05:29:01;;;;;;;;;;;;;;;12.33;62.36;99666.41;4959189;28;19918;-80
2022/02/07 05:32:18;;;;;;;;;;;;;;;12.38;62.49;99696.94;4945371;28;19918;-79
2022/02/07 05:35:23;;;;;;;;;;;;;;;12.53;63.78;99702.72;4957614;28;19918;-80
2022/02/07 05:38:17;;;;;;;;;;;;;;;12.59;58.38;99704.84;4962265;28;20370;-80
2022/02/07 05:41:08;;;;;;;;;;;;;;;12.51;58.86;99705.78;4961304;28;19914;-80
2022/02/07 05:44:13;;;;;;;;;;;;;;;12.39;60.27;99678.63;4958573;28;20387;-80
2022/02/07 05:47:30;;;;;;;;;;;;;;;12.32;58.99;99719.34;4938247;29;20343;-81
2022/02/07 05:50:33;;;;;;;;;;;;;;;12.35;57.45;99752.13;4939492;29;20384;-81
2022/02/07 05:53:36;;;;;;;;;;;;;;;12.31;54.55;99750.47;4938393;29;20287;-79
2022/02/07 05:56:31;;;;;;;;;;;;;;;12.29;57.93;99755.50;4949003;28;19918;-80
2022/02/07 05:59:41;;;;;;;;;;;;;;;12.18;52.06;99740.78;4954334;29;19914;-79
2022/02/07 06:02:45;;;;;;;;;;;;;;;11.63;52.38;99750.53;4953680;29;20391;-81
2022/02/07 06:05:49;;;;;;;;;;;;;;;11.25;53.34;99752.91;4958749;28;20287;-79
2022/02/07 06:08:41;;;;;;;;;;;;;;;11.18;52.76;99752.66;4946009;28;20302;-79
2022/02/07 06:11:27;;;;;;;;;;;;;;;10.83;53.12;99742.28;4956251;28;20447;-79
2022/02/07 06:14:13;;;;;;;;;;;;;;;10.67;53.59;99757.69;4955089;28;20303;-78
2022/02/07 06:16:58;;;;;;;;;;;;;;;10.46;55.84;99771.38;4952216;28;19923;-80
2022/02/07 06:19:43;;;;;;;;;;;;;;;10.35;57.37;99759.34;4955625;28;19914;-79
2022/02/07 06:22:29;;;;;;;;;;;;;;;10.14;58.22;99721.34;4956686;28;19914;-79
2022/02/07 06:25:14;;;;;;;;;;;;;;;10.56;60.55;99704.91;4949259;29;20396;-78
2022/02/07 06:27:59;;;;;;;;;;;;;;;10.74;62.55;99717.13;4948289;28;20399;-79
2022/02/07 06:30:58;;;;;;;;;;;;;;;10.81;60.65;99717.38;4951593;28;20388;-78
2022/02/07 06:33:43;;;;;;;;;;;;;;;10.63;59.89;99713.28;4955801;28;19914;-80
2022/02/07 06:36:30;;;;;;;;;;;;;;;10.54;58.48;99750.66;4956689;28;19923;-79
2022/02/07 06:39:16;;;;;;;;;;;;;;;11.03;55.98;99774.00;4959360;28;19951;-78
2022/02/07 06:42:03;;;;;;;;;;;;;;;11.12;63.54;99799.16;4955126;29;19914;-77
2022/02/07 06:44:49;;;;;;;;;;;;;;;11.13;59.41;99810.84;4955914;29;20383;-78
2022/02/07 06:47:34;;;;;;;;;;;;;;;11.18;57.83;99815.25;4959953;29;20303;-78
2022/02/07 06:50:19;;;;;;;;;;;;;;;11.26;58.10;99876.94;4955642;29;19914;-78
2022/02/07 06:53:03;;;;;;;;;;;;;;;11.28;60.49;99918.22;4960584;28;19914;-78
2022/02/07 06:55:49;;;;;;;;;;;;;;;11.09;60.12;99913.31;4957868;28;19918;-78
2022/02/07 06:58:33;;;;;;;;;;;;;;;10.85;60.04;99933.13;4957901;28;19914;-78
2022/02/07 07:01:19;;;;;;;;;;;;;;;11.05;59.79;99967.63;4959826;28;19914;-78
2022/02/07 07:04:03;;;;;;;;;;;;;;;10.91;59.76;99972.59;4958058;28;19914;-77
2022/02/07 07:06:49;;;;;;;;;;;;;;;10.86;60.11;99991.84;4959508;28;19915;-77
2022/02/07 07:09:35;;;;;;;;;;;;;;;10.68;59.79;100006.69;4959515;28;19914;-77
2022/02/07 07:12:20;;;;;;;;;;;;;;;10.52;57.79;100033.69;4961732;28;19918;-78
2022/02/07 07:15:26;;;;;;;;;;;;;;;10.36;57.86;100037.34;4958158;28;20287;-77
2022/02/07 07:18:11;;;;;;;;;;;;;;;10.40;57.27;100055.38;4958224;28;19918;-78
2022/02/07 07:21:00;;;;;;;;;;;;;;;9.91;58.97;100040.59;4957731;29;19930;-78
2022/02/07 07:23:46;;;;;;;;;;;;;;;9.93;59.78;100043.78;4957642;28;20273;-77
2022/02/07 07:26:33;;;;;;;;;;;;;;;10.48;59.61;100057.22;4959553;28;19915;-78
2022/02/07 07:29:27;;;;;;;;;;;;;;;10.41;58.27;100056.19;4957388;28;19949;-79
2022/02/07 07:32:18;;;;;;;;;;;;;;;7.75;67.23;100060.72;4960530;28;19914;-80
2022/02/07 07:35:03;;;;;;;;;;;;;;;7.42;68.84;100075.66;4959773;28;20383;-76
2022/02/07 07:37:48;;;;;;;;;;;;;;;7.13;71.47;100086.94;4949019;28;19922;-76
2022/02/07 07:40:32;;;;;;;;;;;;;;;7.14;71.40;100110.19;4955043;28;20298;-77
2022/02/07 07:43:19;;;;;;;;;;;;;;;7.56;72.77;100103.47;4950143;28;19914;-77
2022/02/07 07:46:28;;;;;;;;;;;;;;;7.20;71.65;100119.78;4953201;29;19914;-76
2022/02/07 07:49:30;;;;;;;;;;;;;;;7.12;73.81;100126.69;4960248;28;20403;-76
2022/02/07 08:02:11;;;;;;;;;;;;;;;7.68;71.25;100125.31;4951861;28;19919;-76
2022/02/07 08:04:57;;;;;;;;;;;;;;;7.62;71.98;100138.19;4961558;28;19914;-76
2022/02/07 08:07:43;;;;;;;;;;;;;;;7.93;70.27;100153.63;4970280;28;19913;-76
2022/02/07 08:10:51;;;;;;;;;;;;;;;7.95;71.04;100144.09;4959452;28;19918;-76
2022/02/07 08:13:38;;;;;;;;;;;;;;;7.75;71.28;100152.75;4949938;28;19914;-76
2022/02/07 08:16:29;;;;;;;;;;;;;;;8.02;70.74;100139.03;4949958;28;19918;-77
2022/02/07 08:19:13;;;;;;;;;;;;;;;7.83;70.79;100148.47;4945832;28;19914;-76
2022/02/07 08:21:57;;;;;;;;;;;;;;;7.99;70.66;100185.66;4948129;29;19914;-77
2022/02/07 08:24:43;;;;;;;;;;;;;;;7.52;72.13;100197.94;4951963;28;19918;-76
2022/02/07 08:27:29;;;;;;;;;;;;;;;8.99;70.60;100202.91;4952032;28;20364;-76
2022/02/07 08:30:13;;;;;;;;;;;;;;;9.90;66.58;100206.59;4949937;28;19914;-75
2022/02/07 08:32:58;;;;;;;;;;;;;;;10.71;63.64;100218.16;4954977;28;19914;-76
2022/02/07 08:35:42;;;;;;;;;;;;;;;10.68;62.89;100213.34;4947673;28;19914;-76
2022/02/07 08:38:28;;;;;;;;;;;;;;;10.65;62.17;100217.53;4950132;28;19914;-76
2022/02/07 08:41:13;;;;;;;;;;;;;;;10.77;61.30;100222.25;4955546;28;19918;-77
2022/02/07 08:43:58;;;;;;;;;;;;;;;10.85;61.85;100242.38;4945860;29;19914;-76
2022/02/07 08:46:42;;;;;;;;;;;;;;;11.06;60.64;100252.19;4952357;28;19914;-77
2022/02/07 08:49:26;;;;;;;;;;;;;;;11.09;60.96;100267.84;4955577;28;19915;-77
2022/02/07 08:52:13;;;;;;;;;;;;;;;11.06;60.40;100271.22;4957876;28;19930;-77
2022/02/07 08:54:58;;;;;;;;;;;;;;;11.18;59.57;100307.81;4955426;28;19914;-77
2022/02/07 08:57:46;;;;;;;;;;;;;;;10.77;61.18;100330.25;4953015;28;19918;-77
2022/02/07 09:00:43;;;;;;;;;;;;;;;10.57;62.00;100329.81;4945092;28;19919;-76
2022/02/07 09:06:31;;;;;;;;;;;;;;;11.46;60.02;100331.50;4956018;28;19914;-76
2022/02/07 09:09:18;;;;;;;;;;;;;;;12.19;57.58;100339.31;4936549;29;19915;-76
2022/02/07 09:12:03;;;;;;;;;;;;;;;12.36;56.29;100348.09;4936908;29;19914;-75
2022/02/07 09:17:55;;;;;;;;;;;;;;;12.08;57.29;100351.75;4942913;29;19918;-77
2022/02/07 09:20:43;;;;;;;;;;;;;;;12.41;56.39;100350.63;4950905;29;19914;-76
2022/02/07 09:23:28;;;;;;;;;;;;;;;12.37;57.03;100362.53;4944520;28;19914;-77
2022/02/07 09:26:13;;;;;;;;;;;;;;;12.57;55.98;100367.16;4949920;28;19915;-77
2022/02/07 09:28:58;;;;;;;;;;;;;;;12.59;56.54;100392.16;4945884;28;19914;-80
2022/02/07 09:31:42;;;;;;;;;;;;;;;13.36;54.49;100376.81;4950867;29;19914;-79
2022/02/07 09:34:27;;;;;;;;;;;;;;;13.41;53.38;100397.66;4953051;28;19914;-79
2022/02/07 09:37:12;;;;;;;;;;;;;;;12.89;54.37;100405.66;4945751;29;19922;-77
2022/02/07 09:39:56;;;;;;;;;;;;;;;12.66;55.21;100414.22;4939934;29;20391;-76
2022/02/07 09:42:46;;;;;;;;;;;;;;;11.94;57.33;100415.47;4950249;28;19918;-79
2022/02/07 09:45:40;;;;;;;;;;;;;;;11.23;58.77;100413.75;4941052;28;19914;-77
2022/02/07 09:48:25;;;;;;;;;;;;;;;10.73;60.23;100409.75;4944618;29;19914;-76
2022/02/07 09:51:10;;;;;;;;;;;;;;;10.59;61.45;100413.78;4949664;28;20387;-77
2022/02/07 09:53:55;;;;;;;;;;;;;;;10.54;61.41;100419.41;4957511;28;20327;-77
2022/02/07 09:56:40;;;;;;;;;;;;;;;10.50;62.32;100424.69;4952775;28;19919;-77
2022/02/07 09:59:28;;;;;;;;;;;;;;;10.74;60.99;100445.91;4957755;28;20379;-77
2022/02/07 10:02:35;;;;;;;;;;;;;;;10.51;61.62;100441.81;4970189;28;19914;-77
2022/02/07 10:05:22;;;;;;;;;;;;;;;10.63;61.51;100455.53;4954960;28;20295;-77
2022/02/07 10:08:13;;;;;;;;;;;;;;;10.66;59.80;100449.47;4955390;28;20383;-78
2022/02/07 10:14:13;;;;;;;;;;;;;;;11.64;36.10;100462.91;4937652;29;19923;-77
2022/02/07 10:38:11;;;;;;;;;;;;;;;12.62;23.90;100552.44;4949118;29;19918;-77
2022/02/07 10:44:02;;;;;;;;;;;;;;;12.66;23.98;100567.00;4939576;28;19918;-77
2022/02/07 10:46:54;;;;;;;;;;;;;;;12.76;24.82;100572.06;4953480;29;19914;-76
2022/02/07 10:49:59;;;;;;;;;;;;;;;12.83;26.12;100575.06;4953565;28;19914;-77
2022/02/07 10:52:50;;;;;;;;;;;;;;;13.21;21.25;100588.53;4946946;28;20298;-77
2022/02/07 10:55:35;;;;;;;;;;;;;;;13.33;22.73;100587.78;4948261;28;20318;-77
2022/02/07 10:58:20;;;;;;;;;;;;;;;13.38;22.75;100592.25;4952624;29;19922;-76
2022/02/07 11:04:13;;;;;;;;;;;;;;;13.58;22.22;100603.13;4943501;29;20326;-75
2022/02/07 11:07:01;;;;;;;;;;;;;;;13.46;21.32;100597.63;4947234;28;19919;-75
2022/02/07 11:13:11;;;;;;;;;;;;;;;13.31;20.77;100611.13;4949437;29;19918;-76
2022/02/07 11:16:01;;;;;;;;;;;;;;;13.39;20.61;100612.97;4948140;28;19914;-75
2022/02/07 11:22:06;;;;;;;;;;;;;;;13.57;20.02;100634.31;4953562;29;19914;-75
2022/02/07 11:27:51;;;;;;;;;;;;;;;13.17;21.06;100652.34;4953557;28;19915;-75
2022/02/07 11:30:47;;;;;;;;;;;;;;;13.33;21.46;100664.28;4953461;28;19914;-75
2022/02/07 11:34:00;;;;;;;;;;;;;;;13.46;22.85;100682.28;4952913;28;19919;-74
2022/02/07 11:36:45;;;;;;;;;;;;;;;13.61;24.21;100687.13;4953634;28;19919;-75
2022/02/07 11:39:40;;;;;;;;;;;;;;;13.66;24.58;100689.66;4953657;29;20359;-75
2022/02/07 11:42:25;;;;;;;;;;;;;;;13.64;23.13;100699.34;4951653;28;19914;-75
2022/02/07 11:45:09;;;;;;;;;;;;;;;13.66;24.55;100700.59;4952190;28;20318;-75
2022/02/07 11:47:56;;;;;;;;;;;;;;;13.68;24.00;100709.25;4946738;29;19914;-75
2022/02/07 11:50:42;;;;;;;;;;;;;;;13.76;23.13;100715.00;4957121;28;19915;-75
2022/02/07 11:53:31;;;;;;;;;;;;;;;13.74;25.23;100729.00;4951043;29;19923;-75
2022/02/07 11:56:25;;;;;;;;;;;;;;;13.81;24.25;100731.19;4951889;28;19914;-76
2022/02/07 12:02:19;;;;;;;;;;;;;;;13.88;21.83;100758.75;4956268;28;20315;-77
2022/02/07 12:05:08;;;;;;;;;;;;;;;14.02;22.54;100762.00;4945934;28;19918;-76
2022/02/07 12:08:04;;;;;;;;;;;;;;;14.12;23.86;100770.56;4952585;29;19922;-75
2022/02/07 12:11:01;;;;;;;;;;;;;;;14.07;22.76;100772.72;4952772;28;19915;-77
2022/02/07 12:13:45;;;;;;;;;;;;;;;14.14;24.66;100781.19;4942781;29;19915;-76
2022/02/07 12:16:43;;;;;;;;;;;;;;;14.12;25.76;100795.19;4948786;28;19922;-76
2022/02/07 12:19:36;;;;;;;;;;;;;;;14.13;24.45;100785.03;4951398;28;19918;-76
2022/02/07 12:22:20;;;;;;;;;;;;;;;14.03;23.03;100801.88;4950509;29;19914;-76
2022/02/07 12:25:10;;;;;;;;;;;;;;;14.00;23.06;100803.34;4949548;29;19914;-76
2022/02/07 12:27:59;;;;;;;;;;;;;;;14.00;22.53;100808.81;4946294;28;19919;-77
2022/02/07 12:33:29;;;;;;;;;;;;;;;14.17;23.22;100812.53;4955603;29;19915;-76
2022/02/07 12:36:14;;;;;;;;;;;;;;;14.20;24.04;100811.84;4953665;29;20762;-76
2022/02/07 12:39:00;;;;;;;;;;;;;;;14.15;23.19;100821.06;4954342;28;19922;-76
2022/02/07 12:41:45;;;;;;;;;;;;;;;14.20;23.45;100817.31;4951936;29;19914;-76
2022/02/07 12:44:30;;;;;;;;;;;;;;;14.18;21.13;100820.38;4954000;28;19914;-76
2022/02/07 12:47:15;;;;;;;;;;;;;;;14.22;20.28;100837.72;4958922;28;20378;-76
2022/02/07 12:50:10;;;;;;;;;;;;;;;14.24;20.97;100832.72;4957055;28;19936;-76
2022/02/07 12:52:56;;;;;;;;;;;;;;;14.18;20.49;100836.00;4955439;28;19918;-76
2022/02/07 12:55:41;;;;;;;;;;;;;;;14.19;20.72;100837.59;4952465;28;19915;-75
2022/02/07 12:58:26;;;;;;;;;;;;;;;14.27;22.23;100864.91;4945771;28;19919;-76
2022/02/07 13:01:26;;;;;;;;;;;;;;;14.26;21.29;100863.28;4951639;29;19914;-76
2022/02/07 13:04:15;;;;;;;;;;;;;;;14.31;20.73;100868.56;4935381;29;19916;-75
2022/02/07 13:07:04;;;;;;;;;;;;;;;14.33;21.42;100877.19;4936129;29;19914;-76
2022/02/07 13:09:56;;;;;;;;;;;;;;;14.26;20.62;100882.44;4936309;29;19915;-76
2022/02/07 13:15:44;;;;;;;;;;;;;;;14.33;19.41;100887.34;4935263;29;19914;-76
2022/02/07 13:18:33;;;;;;;;;;;;;;;14.36;19.52;100900.38;4935975;29;19931;-75
2022/02/07 13:21:18;;;;;;;;;;;;;;;14.42;19.23;100899.88;4936165;29;19915;-76
2022/02/07 13:24:14;;;;;;;;;;;;;;;14.47;19.22;100904.31;4935028;29;19914;-76
2022/02/07 13:26:59;;;;;;;;;;;;;;;14.52;18.92;100906.84;4935870;29;19918;-76
2022/02/07 13:29:45;;;;;;;;;;;;;;;14.68;21.01;100915.22;4935840;29;19914;-77
2022/02/07 13:32:31;;;;;;;;;;;;;;;14.64;18.71;100912.34;4937134;29;19922;-76
2022/02/07 13:35:19;;;;;;;;;;;;;;;14.72;18.75;100910.66;4948859;28;19918;-76
2022/02/07 13:38:05;;;;;;;;;;;;;;;14.74;18.41;100897.44;4950053;29;19918;-76
2022/02/07 13:40:51;;;;;;;;;;;;;;;14.76;17.70;100908.84;4946571;28;19918;-75
2022/02/07 13:43:35;;;;;;;;;;;;;;;14.82;17.26;100910.25;4949537;28;19922;-76
2022/02/07 13:46:19;;;;;;;;;;;;;;;14.91;18.74;100908.19;4951923;29;19915;-76
2022/02/07 13:49:06;;;;;;;;;;;;;;;14.97;18.92;100910.38;4954977;29;19922;-76
2022/02/07 13:51:52;;;;;;;;;;;;;;;15.00;18.73;100914.38;4952223;28;19918;-76
2022/02/07 13:54:36;;;;;;;;;;;;;;;15.03;16.85;100924.66;4952217;29;19914;-76
2022/02/07 13:57:20;;;;;;;;;;;;;;;15.09;19.83;100923.28;4952676;28;20379;-76
2022/02/07 14:00:09;;;;;;;;;;;;;;;15.12;17.94;100935.50;4946681;28;19914;-76
2022/02/07 14:03:13;;;;;;;;;;;;;;;15.17;18.70;100933.34;4949186;29;19922;-76
2022/02/07 14:06:00;;;;;;;;;;;;;;;15.20;19.47;100943.63;4947240;28;20407;-77
2022/02/07 14:08:54;;;;;;;;;;;;;;;15.28;19.29;100945.47;4949176;28;19926;-76
2022/02/07 14:11:39;;;;;;;;;;;;;;;15.32;18.14;100957.34;4943961;29;19914;-76
2022/02/07 14:14:26;;;;;;;;;;;;;;;15.34;18.17;100965.22;4951110;28;20295;-76
2022/02/07 14:17:11;;;;;;;;;;;;;;;15.36;16.08;100973.91;4952541;28;19918;-76
2022/02/07 14:19:59;;;;;;;;;;;;;;;15.44;17.31;100978.47;4949479;29;20391;-76
2022/02/07 14:22:44;;;;;;;;;;;;;;;15.48;15.71;100982.13;4945350;29;19918;-76
2022/02/07 14:25:30;;;;;;;;;;;;;;;15.50;17.62;100992.75;4945454;29;19914;-76
2022/02/07 14:28:15;;;;;;;;;;;;;;;15.56;17.45;100994.97;4941741;29;19915;-77
2022/02/07 14:30:59;;;;;;;;;;;;;;;15.55;16.24;100993.34;4946601;28;19914;-77
2022/02/07 14:33:44;;;;;;;;;;;;;;;15.69;15.23;101004.81;4941805;28;19915;-77
2022/02/07 14:36:30;;;;;;;;;;;;;;;15.65;17.38;101003.06;4955530;28;20291;-78
2022/02/07 14:39:15;;;;;;;;;;;;;;;15.72;18.50;101006.06;4945116;28;19918;-77
2022/02/07 14:42:01;;;;;;;;;;;;;;;15.71;18.34;101009.94;4956028;28;19914;-77
2022/02/07 14:44:58;;;;;;;;;;;;;;;15.66;16.83;101001.94;4949682;29;19922;-75
2022/02/07 14:50:31;;;;;;;;;;;;;;;15.61;17.77;101010.38;4953875;29;19914;-75
2022/02/07 14:53:16;;;;;;;;;;;;;;;15.73;15.89;101026.84;4954244;29;19915;-75
2022/02/07 14:56:01;;;;;;;;;;;;;;;15.66;16.54;101029.34;4953586;29;19914;-75
2022/02/07 14:58:45;;;;;;;;;;;;;;;15.60;18.16;101038.94;4953773;29;19918;-75
2022/02/07 15:01:29;;;;;;;;;;;;;;;15.78;17.19;101041.13;4952834;29;19914;-75
2022/02/07 15:04:14;;;;;;;;;;;;;;;15.95;17.01;101048.31;4957190;28;19914;-75
2022/02/07 15:06:58;;;;;;;;;;;;;;;16.13;18.71;101055.19;4947113;29;19923;-76
2022/02/07 15:09:43;;;;;;;;;;;;;;;15.99;17.82;101057.47;4946425;29;19914;-76
2022/02/07 15:12:28;;;;;;;;;;;;;;;15.94;16.82;101062.41;4949497;28;19918;-75
2022/02/07 15:15:12;;;;;;;;;;;;;;;15.99;15.60;101070.41;4950154;28;19915;-76
2022/02/07 15:17:58;;;;;;;;;;;;;;;15.86;15.84;101074.25;4947921;29;19923;-76
2022/02/07 15:20:45;;;;;;;;;;;;;;;15.87;18.04;101078.59;4946377;28;20311;-76
2022/02/07 15:23:31;;;;;;;;;;;;;;;15.79;17.93;101083.88;4947702;29;20375;-76
2022/02/07 15:26:20;;;;;;;;;;;;;;;15.78;17.42;101081.47;4950833;28;19918;-76
2022/02/07 15:29:04;;;;;;;;;;;;;;;15.78;17.39;101090.50;4955786;28;20315;-77
2022/02/07 15:31:58;;;;;;;;;;;;;;;15.86;17.21;101102.50;4950312;29;19915;-76
2022/02/07 15:34:43;;;;;;;;;;;;;;;15.85;14.69;101100.09;4969408;28;19918;-75
2022/02/07 15:37:28;;;;;;;;;;;;;;;15.90;17.32;101099.88;4953714;28;19918;-78
2022/02/07 15:40:12;;;;;;;;;;;;;;;15.99;15.41;101114.28;4964929;28;19918;-76
2022/02/07 15:42:57;;;;;;;;;;;;;;;15.93;15.29;101113.72;4937877;29;19919;-76
2022/02/07 15:45:43;;;;;;;;;;;;;;;15.87;14.94;101115.06;4937540;29;19918;-76
2022/02/07 15:48:29;;;;;;;;;;;;;;;15.83;15.11;101125.13;4937834;29;20307;-76
2022/02/07 15:51:14;;;;;;;;;;;;;;;15.84;14.46;101129.47;4950239;28;19915;-76
2022/02/07 15:53:59;;;;;;;;;;;;;;;15.77;14.41;101137.44;4937470;29;19919;-76
2022/02/07 15:56:43;;;;;;;;;;;;;;;15.78;14.81;101125.34;4937827;29;19914;-76
2022/02/07 15:59:28;;;;;;;;;;;;;;;15.73;16.18;101126.38;4937814;29;20308;-76
2022/02/07 16:02:12;;;;;;;;;;;;;;;15.76;16.57;101144.06;4937615;29;19918;-76
2022/02/07 16:04:57;;;;;;;;;;;;;;;15.68;16.55;101147.72;4937071;29;19915;-76
2022/02/07 16:07:42;;;;;;;;;;;;;;;15.63;16.40;101150.66;4937360;29;20403;-76
2022/02/07 16:10:27;;;;;;;;;;;;;;;15.54;16.30;101150.75;4937524;29;19915;-76
2022/02/07 16:15:59;;;;;;;;;;;;;;;15.45;16.24;101154.66;4936901;29;19914;-76
2022/02/07 16:18:44;;;;;;;;;;;;;;;15.34;15.97;101160.56;4937246;29;19919;-76
2022/02/07 16:21:28;;;;;;;;;;;;;;;15.26;15.83;101166.94;4937287;29;19914;-76
2022/02/07 16:24:17;;;;;;;;;;;;;;;15.25;15.67;101173.53;4936702;29;19922;-76
2022/02/07 16:27:02;;;;;;;;;;;;;;;15.20;16.02;101171.00;4950178;28;19914;-75
2022/02/07 16:29:46;;;;;;;;;;;;;;;15.03;17.17;101179.38;4937059;29;19915;-76
2022/02/07 16:32:31;;;;;;;;;;;;;;;14.89;16.74;101178.81;4937194;29;19914;-76
2022/02/07 16:35:15;;;;;;;;;;;;;;;14.82;17.83;101179.38;4950937;28;19915;-76
2022/02/07 16:38:00;;;;;;;;;;;;;;;14.75;18.23;101183.75;4952854;28;19919;-77
2022/02/07 16:40:44;;;;;;;;;;;;;;;14.70;19.02;101186.69;4946448;28;19918;-76
2022/02/07 16:43:35;;;;;;;;;;;;;;;14.58;19.79;101194.81;4949848;28;19926;-75
2022/02/07 16:49:13;;;;;;;;;;;;;;;14.19;19.50;101212.31;4951866;28;19915;-77
2022/02/07 16:51:59;;;;;;;;;;;;;;;13.70;19.30;101207.13;4948617;28;19918;-77
2022/02/07 16:54:43;;;;;;;;;;;;;;;13.61;20.31;101203.59;4946405;29;19915;-76
2022/02/07 16:57:28;;;;;;;;;;;;;;;13.72;21.62;101217.72;4946803;28;19918;-76
2022/02/07 17:00:13;;;;;;;;;;;;;;;13.60;20.62;101223.88;4953558;28;19915;-77
2022/02/07 17:02:57;;;;;;;;;;;;;;;13.80;20.86;101224.31;4965005;28;19918;-77
2022/02/07 17:05:42;;;;;;;;;;;;;;;13.30;20.82;101232.22;4951979;28;19919;-77
2022/02/07 17:08:26;;;;;;;;;;;;;;;12.96;21.38;101232.94;4948403;28;19918;-77